Terminal Aerodrome Forecast
Issued by NWS

Home | Current Version | Previous Version | Text Only | Print | Product List | Glossary On
Versions: 1 2 3 4 5 6 7 8 9 10 11 12 13 14 15 16 17 18 19 20 21 22 23 24 25 26 27 28 29 30 31 32
000
FTUS43 KDLH 212136 AAB
TAFHYR
TAF AMD
KHYR 212136Z 2122/2218 05004KT 1SM BR OVC005
     FM220400 00000KT 1/2SM -DZ FG VV001
     FM221600 35002KT 3/4SM BR OVC003=

USA.gov is the U.S. government's official web portal to all federal, state and local government web resources and services.